sensor_id;sensor_type;location;lat;lon;timestamp;pressure;altitude;pressure_sealevel;temperature;humidity
66479;BME280;53294;47.912;13.526;2023-03-01T00:00:13;96759.09;;;0.32;64.80
66479;BME280;53294;47.912;13.526;2023-03-01T00:02:40;96756.72;;;0.24;65.18
66479;BME280;53294;47.912;13.526;2023-03-01T00:05:07;96766.44;;;0.30;65.15
66479;BME280;53294;47.912;13.526;2023-03-01T00:07:34;96764.00;;;0.28;64.86
66479;BME280;53294;47.912;13.526;2023-03-01T00:10:00;96773.31;;;0.31;64.80
66479;BME280;53294;47.912;13.526;2023-03-01T00:12:27;96770.88;;;0.36;64.55
66479;BME280;53294;47.912;13.526;2023-03-01T00:14:54;96762.75;;;0.31;64.42
66479;BME280;53294;47.912;13.526;2023-03-01T00:17:20;96762.94;;;0.36;64.12
66479;BME280;53294;47.912;13.526;2023-03-01T00:19:47;96764.28;;;0.45;63.88
66479;BME280;53294;47.912;13.526;2023-03-01T00:22:14;96761.91;;;0.37;64.17
66479;BME280;53294;47.912;13.526;2023-03-01T00:24:40;96764.44;;;0.25;64.33
66479;BME280;53294;47.912;13.526;2023-03-01T00:27:07;96761.25;;;0.16;64.57
66479;BME280;53294;47.912;13.526;2023-03-01T00:29:34;96761.66;;;0.13;64.74
66479;BME280;53294;47.912;13.526;2023-03-01T00:32:00;96761.59;;;0.27;63.96
66479;BME280;53294;47.912;13.526;2023-03-01T00:34:27;96759.53;;;0.29;64.01
66479;BME280;53294;47.912;13.526;2023-03-01T00:36:53;96753.47;;;0.22;63.83
66479;BME280;53294;47.912;13.526;2023-03-01T00:39:20;96751.25;;;0.18;64.28
66479;BME280;53294;47.912;13.526;2023-03-01T00:41:47;96748.91;;;0.10;64.33
66479;BME280;53294;47.912;13.526;2023-03-01T00:44:14;96748.19;;;0.22;64.04
66479;BME280;53294;47.912;13.526;2023-03-01T00:46:40;96738.69;;;0.14;63.77
66479;BME280;53294;47.912;13.526;2023-03-01T00:49:07;96739.94;;;0.11;64.09
66479;BME280;53294;47.912;13.526;2023-03-01T00:51:34;96747.03;;;0.17;63.89
66479;BME280;53294;47.912;13.526;2023-03-01T00:54:02;96742.91;;;0.22;63.93
66479;BME280;53294;47.912;13.526;2023-03-01T00:56:29;96736.03;;;0.21;63.70
66479;BME280;53294;47.912;13.526;2023-03-01T00:58:57;96736.03;;;0.21;63.48
66479;BME280;53294;47.912;13.526;2023-03-01T01:01:26;96729.09;;;0.20;63.59
66479;BME280;53294;47.912;13.526;2023-03-01T01:03:57;96729.63;;;0.03;64.14
66479;BME280;53294;47.912;13.526;2023-03-01T01:06:27;96735.78;;;-0.03;64.28
66479;BME280;53294;47.912;13.526;2023-03-01T01:08:55;96735.03;;;0.15;63.41
66479;BME280;53294;47.912;13.526;2023-03-01T01:11:23;96737.41;;;-0.02;64.12
66479;BME280;53294;47.912;13.526;2023-03-01T01:13:50;96719.47;;;0.07;63.67
66479;BME280;53294;47.912;13.526;2023-03-01T01:16:19;96723.06;;;0.12;63.33
66479;BME280;53294;47.912;13.526;2023-03-01T01:18:47;96721.81;;;0.15;63.49
66479;BME280;53294;47.912;13.526;2023-03-01T01:21:16;96719.66;;;0.30;62.83
66479;BME280;53294;47.912;13.526;2023-03-01T01:23:44;96714.72;;;0.41;62.42
66479;BME280;53294;47.912;13.526;2023-03-01T01:26:23;96714.22;;;0.50;62.40
66479;BME280;53294;47.912;13.526;2023-03-01T01:28:51;96717.13;;;0.42;61.98
66479;BME280;53294;47.912;13.526;2023-03-01T01:31:18;96720.91;;;0.28;62.35
66479;BME280;53294;47.912;13.526;2023-03-01T01:33:46;96729.81;;;0.33;62.22
66479;BME280;53294;47.912;13.526;2023-03-01T01:36:12;96724.28;;;-0.15;63.64
66479;BME280;53294;47.912;13.526;2023-03-01T01:38:39;96728.53;;;-0.14;63.51
66479;BME280;53294;47.912;13.526;2023-03-01T01:41:06;96715.47;;;-0.03;63.00
66479;BME280;53294;47.912;13.526;2023-03-01T01:43:37;96718.97;;;0.16;62.61
66479;BME280;53294;47.912;13.526;2023-03-01T01:46:28;96711.19;;;0.22;62.18
66479;BME280;53294;47.912;13.526;2023-03-01T01:49:02;96711.81;;;-0.02;63.01
66479;BME280;53294;47.912;13.526;2023-03-01T01:51:38;96703.03;;;-0.27;63.75
66479;BME280;53294;47.912;13.526;2023-03-01T01:54:14;96699.81;;;-0.36;64.44
66479;BME280;53294;47.912;13.526;2023-03-01T01:56:46;96694.97;;;-0.39;64.49
66479;BME280;53294;47.912;13.526;2023-03-01T01:59:14;96692.16;;;-0.44;64.39
66479;BME280;53294;47.912;13.526;2023-03-01T02:01:42;96697.09;;;-0.55;64.78
66479;BME280;53294;47.912;13.526;2023-03-01T02:04:09;96690.53;;;-0.39;64.29
66479;BME280;53294;47.912;13.526;2023-03-01T02:06:44;96698.22;;;-0.37;64.25
66479;BME280;53294;47.912;13.526;2023-03-01T02:09:14;96695.75;;;-0.32;64.02
66479;BME280;53294;47.912;13.526;2023-03-01T02:11:41;96689.59;;;-0.51;64.63
66479;BME280;53294;47.912;13.526;2023-03-01T02:14:09;96690.44;;;-0.57;64.83
66479;BME280;53294;47.912;13.526;2023-03-01T02:16:36;96684.00;;;-0.36;64.09
66479;BME280;53294;47.912;13.526;2023-03-01T02:19:04;96694.97;;;-0.39;63.86
66479;BME280;53294;47.912;13.526;2023-03-01T02:21:42;96688.53;;;-0.43;64.08
66479;BME280;53294;47.912;13.526;2023-03-01T02:24:37;96688.41;;;-0.23;63.44
66479;BME280;53294;47.912;13.526;2023-03-01T02:27:06;96681.69;;;-0.26;63.03
66479;BME280;53294;47.912;13.526;2023-03-01T02:29:33;96677.41;;;-0.20;62.87
66479;BME280;53294;47.912;13.526;2023-03-01T02:32:02;96676.25;;;-0.31;63.22
66479;BME280;53294;47.912;13.526;2023-03-01T02:34:31;96675.31;;;-0.43;63.51
66479;BME280;53294;47.912;13.526;2023-03-01T02:37:09;96669.34;;;-0.32;63.25
66479;BME280;53294;47.912;13.526;2023-03-01T02:39:59;96675.06;;;-0.35;63.02
66479;BME280;53294;47.912;13.526;2023-03-01T02:42:41;96667.81;;;-0.46;63.24
66479;BME280;53294;47.912;13.526;2023-03-01T02:45:11;96662.78;;;-0.23;62.79
66479;BME280;53294;47.912;13.526;2023-03-01T02:47:38;96662.00;;;-0.30;62.49
66479;BME280;53294;47.912;13.526;2023-03-01T02:56:00;96660.41;;;-0.63;63.86
66479;BME280;53294;47.912;13.526;2023-03-01T02:58:27;96663.81;;;-0.56;63.78
66479;BME280;53294;47.912;13.526;2023-03-01T03:00:54;96650.53;;;-0.42;63.31
66479;BME280;53294;47.912;13.526;2023-03-01T03:03:21;96643.16;;;-0.33;62.98
66479;BME280;53294;47.912;13.526;2023-03-01T03:05:48;96640.44;;;-0.20;62.50
66479;BME280;53294;47.912;13.526;2023-03-01T03:08:15;96630.09;;;-0.22;62.17
66479;BME280;53294;47.912;13.526;2023-03-01T03:10:50;96639.53;;;-0.39;63.16
66479;BME280;53294;47.912;13.526;2023-03-01T03:13:17;96646.16;;;-0.55;63.46
66479;BME280;53294;47.912;13.526;2023-03-01T03:15:45;96652.59;;;-0.76;64.18
66479;BME280;53294;47.912;13.526;2023-03-01T03:18:15;96652.13;;;-0.66;63.90
66479;BME280;53294;47.912;13.526;2023-03-01T03:20:42;96649.00;;;-0.88;64.85
66479;BME280;53294;47.912;13.526;2023-03-01T03:23:09;96644.84;;;-0.71;64.06
66479;BME280;53294;47.912;13.526;2023-03-01T03:25:36;96651.22;;;-0.92;64.49
66479;BME280;53294;47.912;13.526;2023-03-01T03:28:05;96651.50;;;-1.07;65.32
66479;BME280;53294;47.912;13.526;2023-03-01T03:30:38;96651.94;;;-1.10;65.53
66479;BME280;53294;47.912;13.526;2023-03-01T03:33:05;96658.03;;;-1.23;65.58
66479;BME280;53294;47.912;13.526;2023-03-01T03:35:39;96658.44;;;-1.19;66.10
66479;BME280;53294;47.912;13.526;2023-03-01T03:38:09;96658.50;;;-1.33;66.79
66479;BME280;53294;47.912;13.526;2023-03-01T03:40:47;96657.31;;;-1.43;67.31
66479;BME280;53294;47.912;13.526;2023-03-01T03:43:16;96657.91;;;-1.35;66.93
66479;BME280;53294;47.912;13.526;2023-03-01T03:45:45;96666.66;;;-1.54;67.70
66479;BME280;53294;47.912;13.526;2023-03-01T03:48:12;96663.59;;;-1.51;68.02
66479;BME280;53294;47.912;13.526;2023-03-01T03:50:40;96658.94;;;-1.49;68.07
66479;BME280;53294;47.912;13.526;2023-03-01T03:53:09;96668.28;;;-1.53;68.14
66479;BME280;53294;47.912;13.526;2023-03-01T03:55:37;96662.97;;;-1.40;67.38
66479;BME280;53294;47.912;13.526;2023-03-01T03:58:07;96657.69;;;-1.33;66.75
66479;BME280;53294;47.912;13.526;2023-03-01T04:00:38;96653.41;;;-1.28;66.36
66479;BME280;53294;47.912;13.526;2023-03-01T04:03:06;96650.00;;;-1.41;67.19
66479;BME280;53294;47.912;13.526;2023-03-01T04:05:34;96646.31;;;-1.34;66.79
66479;BME280;53294;47.912;13.526;2023-03-01T04:08:02;96643.69;;;-1.27;66.30
66479;BME280;53294;47.912;13.526;2023-03-01T04:10:31;96650.81;;;-1.41;66.72
66479;BME280;53294;47.912;13.526;2023-03-01T04:12:58;96645.75;;;-1.49;67.16
66479;BME280;53294;47.912;13.526;2023-03-01T04:15:26;96639.88;;;-1.51;67.08
66479;BME280;53294;47.912;13.526;2023-03-01T04:17:54;96638.41;;;-1.34;66.26
66479;BME280;53294;47.912;13.526;2023-03-01T04:20:23;96638.56;;;-1.22;65.75
66479;BME280;53294;47.912;13.526;2023-03-01T04:23:25;96637.81;;;-1.36;66.51
66479;BME280;53294;47.912;13.526;2023-03-01T04:25:53;96641.31;;;-1.49;67.15
66479;BME280;53294;47.912;13.526;2023-03-01T04:30:47;96639.03;;;-1.38;66.33
66479;BME280;53294;47.912;13.526;2023-03-01T04:33:14;96636.59;;;-1.40;66.27
66479;BME280;53294;47.912;13.526;2023-03-01T04:35:40;96639.47;;;-1.48;66.52
66479;BME280;53294;47.912;13.526;2023-03-01T04:38:07;96629.31;;;-1.38;66.33
66479;BME280;53294;47.912;13.526;2023-03-01T04:40:34;96640.22;;;-1.28;65.78
66479;BME280;53294;47.912;13.526;2023-03-01T04:43:02;96640.63;;;-1.24;65.59
66479;BME280;53294;47.912;13.526;2023-03-01T04:45:29;96641.19;;;-1.15;64.99
66479;BME280;53294;47.912;13.526;2023-03-01T04:47:56;96640.13;;;-1.01;64.76
66479;BME280;53294;47.912;13.526;2023-03-01T04:50:24;96638.53;;;-1.09;64.48
66479;BME280;53294;47.912;13.526;2023-03-01T04:52:52;96634.38;;;-0.91;64.25
66479;BME280;53294;47.912;13.526;2023-03-01T04:55:19;96640.59;;;-1.17;65.00
66479;BME280;53294;47.912;13.526;2023-03-01T04:57:45;96633.72;;;-1.25;65.41
66479;BME280;53294;47.912;13.526;2023-03-01T05:00:15;96637.84;;;-1.49;66.42
66479;BME280;53294;47.912;13.526;2023-03-01T05:02:59;96634.19;;;-1.35;65.87
66479;BME280;53294;47.912;13.526;2023-03-01T05:05:28;96634.75;;;-1.33;65.66
66479;BME280;53294;47.912;13.526;2023-03-01T05:07:56;96639.66;;;-1.43;65.76
66479;BME280;53294;47.912;13.526;2023-03-01T05:10:24;96645.97;;;-1.44;66.17
66479;BME280;53294;47.912;13.526;2023-03-01T05:12:51;96641.94;;;-1.53;66.64
66479;BME280;53294;47.912;13.526;2023-03-01T05:15:21;96642.34;;;-1.56;66.89
66479;BME280;53294;47.912;13.526;2023-03-01T05:17:56;96639.47;;;-1.48;66.23
66479;BME280;53294;47.912;13.526;2023-03-01T05:20:26;96641.94;;;-1.67;67.31
66479;BME280;53294;47.912;13.526;2023-03-01T05:22:56;96631.88;;;-1.83;67.92
66479;BME280;53294;47.912;13.526;2023-03-01T05:25:25;96638.78;;;-1.95;68.23
66479;BME280;53294;47.912;13.526;2023-03-01T05:27:52;96636.75;;;-1.93;68.18
66479;BME280;53294;47.912;13.526;2023-03-01T05:30:19;96634.66;;;-1.58;67.07
66479;BME280;53294;47.912;13.526;2023-03-01T05:32:48;96623.75;;;-1.82;68.12
66479;BME280;53294;47.912;13.526;2023-03-01T05:35:17;96640.16;;;-1.93;68.39
66479;BME280;53294;47.912;13.526;2023-03-01T05:37:46;96633.09;;;-1.92;68.70
66479;BME280;53294;47.912;13.526;2023-03-01T05:40:15;96626.19;;;-1.93;68.26
66479;BME280;53294;47.912;13.526;2023-03-01T05:42:47;96630.66;;;-2.07;69.55
66479;BME280;53294;47.912;13.526;2023-03-01T05:45:15;96636.31;;;-2.04;69.03
66479;BME280;53294;47.912;13.526;2023-03-01T05:47:45;96631.06;;;-2.04;69.09
66479;BME280;53294;47.912;13.526;2023-03-01T05:50:23;96635.50;;;-1.84;68.87
66479;BME280;53294;47.912;13.526;2023-03-01T05:53:12;96633.44;;;-1.62;67.84
66479;BME280;53294;47.912;13.526;2023-03-01T05:55:40;96633.06;;;-1.72;67.89
66479;BME280;53294;47.912;13.526;2023-03-01T05:58:10;96631.47;;;-1.80;68.96
66479;BME280;53294;47.912;13.526;2023-03-01T06:00:37;96632.06;;;-1.78;68.79
66479;BME280;53294;47.912;13.526;2023-03-01T06:03:04;96631.88;;;-1.83;68.57
66479;BME280;53294;47.912;13.526;2023-03-01T06:05:30;96633.88;;;-1.78;68.47
66479;BME280;53294;47.912;13.526;2023-03-01T06:08:01;96633.47;;;-1.75;68.90
66479;BME280;53294;47.912;13.526;2023-03-01T06:10:28;96639.53;;;-1.61;68.19
66479;BME280;53294;47.912;13.526;2023-03-01T06:12:55;96636.28;;;-1.64;68.36
66479;BME280;53294;47.912;13.526;2023-03-01T06:15:23;96649.69;;;-1.72;68.65
66479;BME280;53294;47.912;13.526;2023-03-01T06:17:50;96646.03;;;-1.71;68.69
66479;BME280;53294;47.912;13.526;2023-03-01T06:20:22;96635.69;;;-1.79;68.85
66479;BME280;53294;47.912;13.526;2023-03-01T06:22:49;96639.72;;;-1.56;67.88
66479;BME280;53294;47.912;13.526;2023-03-01T06:25:19;96639.06;;;-1.45;67.38
66479;BME280;53294;47.912;13.526;2023-03-01T06:27:46;96636.69;;;-1.67;68.43
66479;BME280;53294;47.912;13.526;2023-03-01T06:30:17;96633.03;;;-1.66;68.40
66479;BME280;53294;47.912;13.526;2023-03-01T06:32:44;96649.25;;;-1.62;68.21
66479;BME280;53294;47.912;13.526;2023-03-01T06:35:12;96640.28;;;-1.48;68.31
66479;BME280;53294;47.912;13.526;2023-03-01T06:37:40;96647.63;;;-1.63;68.88
66479;BME280;53294;47.912;13.526;2023-03-01T06:40:09;96647.19;;;-1.53;68.16
66479;BME280;53294;47.912;13.526;2023-03-01T06:42:40;96658.75;;;-1.54;67.85
66479;BME280;53294;47.912;13.526;2023-03-01T06:45:08;96656.28;;;-1.49;67.97
66479;BME280;53294;47.912;13.526;2023-03-01T06:47:35;96658.75;;;-1.54;68.29
66479;BME280;53294;47.912;13.526;2023-03-01T06:50:02;96655.53;;;-1.56;68.07
66479;BME280;53294;47.912;13.526;2023-03-01T06:52:29;96660.38;;;-1.53;68.26
66479;BME280;53294;47.912;13.526;2023-03-01T06:54:56;96652.50;;;-1.67;68.96
66479;BME280;53294;47.912;13.526;2023-03-01T06:57:22;96655.09;;;-1.53;68.40
66479;BME280;53294;47.912;13.526;2023-03-01T06:59:49;96655.69;;;-1.51;68.44
66479;BME280;53294;47.912;13.526;2023-03-01T07:02:16;96658.50;;;-1.46;68.21
66479;BME280;53294;47.912;13.526;2023-03-01T07:04:43;96660.72;;;-1.30;67.92
66479;BME280;53294;47.912;13.526;2023-03-01T07:07:10;96653.41;;;-1.34;68.23
66479;BME280;53294;47.912;13.526;2023-03-01T07:09:37;96661.69;;;-1.17;67.71
66479;BME280;53294;47.912;13.526;2023-03-01T07:12:03;96651.13;;;-1.17;67.41
66479;BME280;53294;47.912;13.526;2023-03-01T07:14:30;96651.94;;;-1.10;67.63
66479;BME280;53294;47.912;13.526;2023-03-01T07:16:57;96646.31;;;-1.34;68.41
66479;BME280;53294;47.912;13.526;2023-03-01T07:19:23;96648.75;;;-1.25;68.33
66479;BME280;53294;47.912;13.526;2023-03-01T07:21:50;96638.94;;;-1.12;68.05
66479;BME280;53294;47.912;13.526;2023-03-01T07:24:17;96640.72;;;-0.99;67.72
66479;BME280;53294;47.912;13.526;2023-03-01T07:26:43;96638.88;;;-0.92;67.42
66479;BME280;53294;47.912;13.526;2023-03-01T07:29:10;96649.47;;;-1.05;68.11
66479;BME280;53294;47.912;13.526;2023-03-01T07:31:37;96649.03;;;-1.02;68.18
66479;BME280;53294;47.912;13.526;2023-03-01T07:34:04;96637.50;;;-1.08;68.10
66479;BME280;53294;47.912;13.526;2023-03-01T07:36:31;96646.56;;;-0.97;68.19
66479;BME280;53294;47.912;13.526;2023-03-01T07:38:58;96633.78;;;-0.93;67.91
66479;BME280;53294;47.912;13.526;2023-03-01T07:41:25;96637.94;;;-0.72;67.15
66479;BME280;53294;47.912;13.526;2023-03-01T07:43:51;96633.75;;;-0.55;67.44
66479;BME280;53294;47.912;13.526;2023-03-01T07:46:18;96624.88;;;-0.60;66.65
66479;BME280;53294;47.912;13.526;2023-03-01T07:48:45;96623.97;;;-0.47;66.83
66479;BME280;53294;47.912;13.526;2023-03-01T07:51:12;96620.16;;;-0.26;66.21
66479;BME280;53294;47.912;13.526;2023-03-01T07:53:40;96614.03;;;-0.20;66.05
66479;BME280;53294;47.912;13.526;2023-03-01T07:56:09;96620.63;;;-0.36;66.25
66479;BME280;53294;47.912;13.526;2023-03-01T07:58:38;96613.31;;;-0.34;66.45
66479;BME280;53294;47.912;13.526;2023-03-01T08:01:07;96615.19;;;-0.16;65.91
66479;BME280;53294;47.912;13.526;2023-03-01T08:03:34;96613.59;;;-0.17;66.09
66479;BME280;53294;47.912;13.526;2023-03-01T08:06:03;96603.69;;;-0.22;65.57
66479;BME280;53294;47.912;13.526;2023-03-01T08:08:30;96597.19;;;-0.01;65.59
66479;BME280;53294;47.912;13.526;2023-03-01T08:10:59;96594.38;;;-0.06;65.44
66479;BME280;53294;47.912;13.526;2023-03-01T08:13:26;96599.47;;;-0.29;66.45
66479;BME280;53294;47.912;13.526;2023-03-01T08:15:53;96600.66;;;-0.25;66.04
66479;BME280;53294;47.912;13.526;2023-03-01T08:18:20;96597.84;;;-0.30;66.41
66479;BME280;53294;47.912;13.526;2023-03-01T08:20:47;96601.47;;;-0.25;66.47
66479;BME280;53294;47.912;13.526;2023-03-01T08:23:14;96597.50;;;-0.41;66.46
66479;BME280;53294;47.912;13.526;2023-03-01T08:25:41;96596.88;;;-0.36;66.84
66479;BME280;53294;47.912;13.526;2023-03-01T08:28:07;96593.56;;;-0.25;66.24
66479;BME280;53294;47.912;13.526;2023-03-01T08:30:34;96587.44;;;-0.25;66.44
66479;BME280;53294;47.912;13.526;2023-03-01T08:33:01;96593.34;;;-0.23;66.34
66479;BME280;53294;47.912;13.526;2023-03-01T08:35:27;96600.19;;;-0.15;66.61
66479;BME280;53294;47.912;13.526;2023-03-01T08:37:54;96590.34;;;-0.08;66.21
66479;BME280;53294;47.912;13.526;2023-03-01T08:40:21;96601.22;;;0.02;66.33
66479;BME280;53294;47.912;13.526;2023-03-01T08:42:48;96596.38;;;-0.01;66.04
66479;BME280;53294;47.912;13.526;2023-03-01T08:45:14;96598.72;;;0.07;65.94
66479;BME280;53294;47.912;13.526;2023-03-01T08:47:44;96593.00;;;0.10;65.70
66479;BME280;53294;47.912;13.526;2023-03-01T08:50:11;96594.34;;;0.20;65.69
66479;BME280;53294;47.912;13.526;2023-03-01T08:52:38;96585.25;;;0.34;65.53
66479;BME280;53294;47.912;13.526;2023-03-01T08:55:05;96589.59;;;0.28;65.83
66479;BME280;53294;47.912;13.526;2023-03-01T08:57:32;96582.91;;;0.44;65.38
66479;BME280;53294;47.912;13.526;2023-03-01T08:59:59;96579.69;;;0.42;65.04
66479;BME280;53294;47.912;13.526;2023-03-01T09:02:25;96581.06;;;0.45;65.57
66479;BME280;53294;47.912;13.526;2023-03-01T09:04:52;96577.53;;;0.51;65.50
66479;BME280;53294;47.912;13.526;2023-03-01T09:07:19;96584.22;;;0.72;65.10
66479;BME280;53294;47.912;13.526;2023-03-01T09:09:46;96584.31;;;0.65;65.22
66479;BME280;53294;47.912;13.526;2023-03-01T09:12:12;96578.94;;;0.72;64.82
66479;BME280;53294;47.912;13.526;2023-03-01T09:14:39;96568.78;;;0.69;65.42
66479;BME280;53294;47.912;13.526;2023-03-01T09:17:07;96560.94;;;0.93;64.28
66479;BME280;53294;47.912;13.526;2023-03-01T09:19:34;96562.34;;;0.95;64.06
66479;BME280;53294;47.912;13.526;2023-03-01T09:22:03;96561.03;;;1.16;64.16
66479;BME280;53294;47.912;13.526;2023-03-01T09:24:30;96559.28;;;1.10;64.03
66479;BME280;53294;47.912;13.526;2023-03-01T09:26:57;96570.06;;;0.97;63.91
66479;BME280;53294;47.912;13.526;2023-03-01T09:29:24;96565.91;;;1.01;64.06
66479;BME280;53294;47.912;13.526;2023-03-01T09:31:50;96559.03;;;1.00;64.22
66479;BME280;53294;47.912;13.526;2023-03-01T09:34:17;96565.78;;;1.26;64.19
66479;BME280;53294;47.912;13.526;2023-03-01T09:36:50;96570.66;;;1.41;63.77
66479;BME280;53294;47.912;13.526;2023-03-01T09:39:17;96553.84;;;1.47;63.23
66479;BME280;53294;47.912;13.526;2023-03-01T09:41:46;96559.84;;;1.54;63.13
66479;BME280;53294;47.912;13.526;2023-03-01T09:47:02;96546.88;;;1.88;62.71
66479;BME280;53294;47.912;13.526;2023-03-01T09:49:31;96558.28;;;2.01;62.26
66479;BME280;53294;47.912;13.526;2023-03-01T09:54:29;96551.78;;;2.32;62.20
66479;BME280;53294;47.912;13.526;2023-03-01T09:56:59;96544.25;;;2.41;61.41
66479;BME280;53294;47.912;13.526;2023-03-01T09:59:44;96544.94;;;2.60;61.17
66479;BME280;53294;47.912;13.526;2023-03-01T10:02:26;96532.75;;;2.76;60.66
66479;BME280;53294;47.912;13.526;2023-03-01T10:10:38;96532.38;;;3.13;59.97
66479;BME280;53294;47.912;13.526;2023-03-01T10:16:48;96520.56;;;3.71;58.31
66479;BME280;53294;47.912;13.526;2023-03-01T10:22:00;96506.88;;;4.19;58.08
66479;BME280;53294;47.912;13.526;2023-03-01T10:24:28;96510.41;;;4.46;57.03
66479;BME280;53294;47.912;13.526;2023-03-01T10:27:22;96502.19;;;4.75;55.36
66479;BME280;53294;47.912;13.526;2023-03-01T10:29:59;96501.91;;;4.72;56.12
66479;BME280;53294;47.912;13.526;2023-03-01T10:32:27;96493.72;;;5.06;54.98
66479;BME280;53294;47.912;13.526;2023-03-01T10:34:53;96487.91;;;5.73;54.81
66479;BME280;53294;47.912;13.526;2023-03-01T10:37:21;96487.75;;;5.90;54.11
66479;BME280;53294;47.912;13.526;2023-03-01T10:40:05;96478.91;;;6.33;52.05
66479;BME280;53294;47.912;13.526;2023-03-01T10:42:39;96471.97;;;6.32;52.98
66479;BME280;53294;47.912;13.526;2023-03-01T10:47:45;96458.94;;;6.40;52.30
66479;BME280;53294;47.912;13.526;2023-03-01T10:50:22;96454.97;;;6.48;50.45
66479;BME280;53294;47.912;13.526;2023-03-01T10:53:28;96456.63;;;6.80;51.19
66479;BME280;53294;47.912;13.526;2023-03-01T10:56:08;96443.88;;;7.23;50.63
66479;BME280;53294;47.912;13.526;2023-03-01T10:58:39;96435.28;;;7.57;49.17
66479;BME280;53294;47.912;13.526;2023-03-01T11:03:42;96425.59;;;7.87;49.49
66479;BME280;53294;47.912;13.526;2023-03-01T11:08:44;96427.69;;;8.05;48.60
66479;BME280;53294;47.912;13.526;2023-03-01T11:13:50;96409.09;;;8.90;46.37
66479;BME280;53294;47.912;13.526;2023-03-01T11:16:24;96402.88;;;9.34;46.02
66479;BME280;53294;47.912;13.526;2023-03-01T11:19:19;96400.97;;;9.64;44.22
66479;BME280;53294;47.912;13.526;2023-03-01T11:22:07;96385.69;;;9.88;45.80
66479;BME280;53294;47.912;13.526;2023-03-01T11:24:47;96377.19;;;10.05;43.73
66479;BME280;53294;47.912;13.526;2023-03-01T11:27:32;96377.59;;;9.94;44.95
66479;BME280;53294;47.912;13.526;2023-03-01T11:30:05;96368.47;;;9.95;44.43
66479;BME280;53294;47.912;13.526;2023-03-01T11:32:43;96358.63;;;10.33;43.90
66479;BME280;53294;47.912;13.526;2023-03-01T11:35:17;96363.72;;;10.54;44.04
66479;BME280;53294;47.912;13.526;2023-03-01T11:38:09;96358.31;;;10.73;43.03
66479;BME280;53294;47.912;13.526;2023-03-01T11:44:00;96356.00;;;11.18;44.40
66479;BME280;53294;47.912;13.526;2023-03-01T11:55:17;96353.13;;;12.17;40.69
66479;BME280;53294;47.912;13.526;2023-03-01T12:08:35;96330.78;;;12.16;39.63
66479;BME280;53294;47.912;13.526;2023-03-01T12:11:20;96331.69;;;12.62;38.53
66479;BME280;53294;47.912;13.526;2023-03-01T12:14:17;96337.56;;;12.28;43.24
66479;BME280;53294;47.912;13.526;2023-03-01T12:19:41;96320.25;;;13.96;37.97
66479;BME280;53294;47.912;13.526;2023-03-01T12:33:33;96298.56;;;14.36;37.34
66479;BME280;53294;47.912;13.526;2023-03-01T12:36:13;96289.34;;;14.89;37.97
66479;BME280;53294;47.912;13.526;2023-03-01T12:46:46;96280.19;;;15.29;37.13
66479;BME280;53294;47.912;13.526;2023-03-01T12:49:20;96281.31;;;15.19;36.60
66479;BME280;53294;47.912;13.526;2023-03-01T12:51:58;96280.75;;;15.52;35.70
66479;BME280;53294;47.912;13.526;2023-03-01T12:54:36;96276.56;;;15.64;33.87
66479;BME280;53294;47.912;13.526;2023-03-01T12:57:20;96277.47;;;15.85;36.20
66479;BME280;53294;47.912;13.526;2023-03-01T13:00:09;96286.66;;;14.54;37.68
66479;BME280;53294;47.912;13.526;2023-03-01T13:11:06;96256.56;;;15.00;36.93
66479;BME280;53294;47.912;13.526;2023-03-01T13:13:38;96244.44;;;15.53;37.68
66479;BME280;53294;47.912;13.526;2023-03-01T13:19:22;96235.22;;;15.46;37.79
66479;BME280;53294;47.912;13.526;2023-03-01T13:21:52;96245.47;;;14.75;36.77
66479;BME280;53294;47.912;13.526;2023-03-01T13:24:36;96233.84;;;14.92;36.44
66479;BME280;53294;47.912;13.526;2023-03-01T13:29:52;96236.25;;;14.50;38.07
66479;BME280;53294;47.912;13.526;2023-03-01T13:32:24;96238.78;;;14.46;38.32
66479;BME280;53294;47.912;13.526;2023-03-01T13:37:41;96222.28;;;14.22;38.68
66479;BME280;53294;47.912;13.526;2023-03-01T13:42:55;96236.41;;;14.10;38.14
66479;BME280;53294;47.912;13.526;2023-03-01T13:45:42;96229.03;;;13.84;38.61
66479;BME280;53294;47.912;13.526;2023-03-01T13:48:24;96233.56;;;13.49;39.36
66479;BME280;53294;47.912;13.526;2023-03-01T13:51:03;96234.59;;;13.30;40.31
66479;BME280;53294;47.912;13.526;2023-03-01T13:53:35;96234.84;;;13.51;39.52
66479;BME280;53294;47.912;13.526;2023-03-01T13:56:09;96228.53;;;12.93;40.29
66479;BME280;53294;47.912;13.526;2023-03-01T13:58:47;96239.22;;;12.75;41.13
66479;BME280;53294;47.912;13.526;2023-03-01T14:01:30;96224.91;;;12.98;41.06
66479;BME280;53294;47.912;13.526;2023-03-01T14:03:59;96227.91;;;12.96;41.54
66479;BME280;53294;47.912;13.526;2023-03-01T14:06:28;96222.91;;;12.81;41.36
66479;BME280;53294;47.912;13.526;2023-03-01T14:09:10;96217.56;;;12.89;41.07
66479;BME280;53294;47.912;13.526;2023-03-01T14:19:27;96213.50;;;12.69;41.85
66479;BME280;53294;47.912;13.526;2023-03-01T14:24:39;96217.78;;;12.25;42.31
66479;BME280;53294;47.912;13.526;2023-03-01T14:27:13;96221.28;;;12.12;43.37
66479;BME280;53294;47.912;13.526;2023-03-01T14:29:40;96227.66;;;11.79;43.73
66479;BME280;53294;47.912;13.526;2023-03-01T14:32:18;96214.84;;;11.85;43.90
66479;BME280;53294;47.912;13.526;2023-03-01T14:34:49;96231.16;;;11.52;44.36
66479;BME280;53294;47.912;13.526;2023-03-01T14:37:31;96227.97;;;11.22;44.75
66479;BME280;53294;47.912;13.526;2023-03-01T14:39:59;96221.41;;;11.42;44.91
66479;BME280;53294;47.912;13.526;2023-03-01T14:42:38;96217.81;;;11.47;44.87
66479;BME280;53294;47.912;13.526;2023-03-01T14:45:06;96225.88;;;11.47;45.17
66479;BME280;53294;47.912;13.526;2023-03-01T14:47:35;96220.19;;;11.35;45.75
66479;BME280;53294;47.912;13.526;2023-03-01T14:52:41;96217.81;;;11.33;45.93
66479;BME280;53294;47.912;13.526;2023-03-01T14:55:20;96219.19;;;11.30;45.71
66479;BME280;53294;47.912;13.526;2023-03-01T14:57:48;96215.22;;;11.14;46.23
66479;BME280;53294;47.912;13.526;2023-03-01T15:00:27;96215.91;;;11.20;45.91
66479;BME280;53294;47.912;13.526;2023-03-01T15:02:56;96218.59;;;11.34;45.98